Wetterdaten: Woche 05.08.13 - 11.08.13 (KW32)
Datum Zeit Temp. A. Feuchte A. Luftdruck Regen Wind Richtung Taupunkt Windchill Windben
05.08.2013 00:00 20,3 C 79 % 1020,3 hPa 0,0 l/m 0,1 km/h N 16,6 C 20,3 C 1,6 km/h
05.08.2013 01:00 19,8 C 79 % 1019,5 hPa 0,0 l/m 0,0 km/h N 16,1 C 19,8 C 1,6 km/h
05.08.2013 02:00 19,2 C 79 % 1019,3 hPa 0,0 l/m 0,0 km/h N 15,4 C 19,2 C 0,0 km/h
05.08.2013 03:00 18,6 C 78 % 1019,0 hPa 0,0 l/m 0,1 km/h N 14,8 C 18,6 C 1,2 km/h
05.08.2013 04:00 18,1 C 78 % 1018,9 hPa 0,0 l/m 0,0 km/h N 14,2 C 18,1 C 0,0 km/h
05.08.2013 05:00 17,7 C 77 % 1019,0 hPa 0,0 l/m 0,0 km/h N 13,7 C 17,7 C 0,0 km/h
05.08.2013 06:00 17,8 C 77 % 1019,3 hPa 4,7 l/m 0,0 km/h N 13,6 C 17,8 C 0,4 km/h
05.08.2013 07:00 18,3 C 75 % 1019,4 hPa 0,0 l/m 0,2 km/h N 13,7 C 18,3 C 2,4 km/h
05.08.2013 08:00 19,8 C 77 % 1019,6 hPa 0,0 l/m 0,6 km/h N 15,6 C 19,8 C 4,8 km/h
05.08.2013 09:00 23,2 C 76 % 1019,5 hPa 0,0 l/m 1,4 km/h N 18,7 C 23,2 C 6,8 km/h
05.08.2013 10:00 25,8 C 65 % 1019,3 hPa 0,0 l/m 0,5 km/h N 18,6 C 25,8 C 5,2 km/h
05.08.2013 11:00 27,2 C 58 % 1018,8 hPa 0,0 l/m 1,4 km/h N 18,1 C 27,2 C 6,0 km/h
05.08.2013 12:00 29,0 C 53 % 1018,3 hPa 0,0 l/m 1,0 km/h N 18,5 C 29,0 C 6,8 km/h
05.08.2013 13:00 30,0 C 52 % 1017,8 hPa 0,0 l/m 1,7 km/h N 18,9 C 30,0 C 9,3 km/h
05.08.2013 14:00 31,0 C 48 % 1017,3 hPa 0,0 l/m 1,8 km/h N 18,5 C 31,0 C 10,5 km/h
05.08.2013 15:00 30,5 C 48 % 1016,7 hPa 0,0 l/m 2,8 km/h N 18,2 C 30,5 C 11,7 km/h
05.08.2013 16:00 30,1 C 53 % 1016,1 hPa 0,0 l/m 2,3 km/h N 19,3 C 30,1 C 12,1 km/h
05.08.2013 17:00 30,1 C 52 % 1015,5 hPa 0,0 l/m 2,1 km/h N 19,2 C 30,1 C 11,7 km/h
05.08.2013 18:00 30,5 C 50 % 1015,2 hPa 0,0 l/m 1,8 km/h N 18,8 C 30,5 C 8,4 km/h
05.08.2013 19:00 30,4 C 51 % 1014,9 hPa 0,0 l/m 0,3 km/h N 19,1 C 30,4 C 4,8 km/h
05.08.2013 20:00 28,6 C 58 % 1015,1 hPa 0,0 l/m 0,0 km/h N 19,5 C 28,6 C 0,4 km/h
05.08.2013 21:00 25,3 C 69 % 1015,5 hPa 0,0 l/m 0,0 km/h N 19,1 C 25,3 C 0,0 km/h
05.08.2013 22:00 23,2 C 75 % 1015,4 hPa 0,0 l/m 0,0 km/h N 18,5 C 23,2 C 0,0 km/h
05.08.2013 23:00 21,8 C 80 % 1015,3 hPa 0,0 l/m 0,0 km/h N 18,1 C 21,8 C 0,0 km/h
06.08.2013 00:00 21,0 C 81 % 1015,3 hPa 0,0 l/m 0,0 km/h N 17,6 C 21,0 C 0,0 km/h
06.08.2013 01:00 20,2 C 82 % 1015,0 hPa 0,0 l/m 0,0 km/h N 17,0 C 20,2 C 0,0 km/h
06.08.2013 02:00 19,8 C 81 % 1014,7 hPa 0,0 l/m 0,0 km/h N 16,4 C 19,8 C 0,0 km/h
06.08.2013 03:00 19,3 C 81 % 1014,6 hPa 0,0 l/m 0,0 km/h N 15,9 C 19,3 C 0,0 km/h
06.08.2013 04:00 18,9 C 80 % 1014,4 hPa 0,0 l/m 0,0 km/h N 15,4 C 18,9 C 0,0 km/h
06.08.2013 05:00 18,6 C 79 % 1014,4 hPa 0,0 l/m 0,0 km/h N 14,9 C 18,6 C 0,0 km/h
06.08.2013 06:00 18,8 C 78 % 1014,4 hPa 0,0 l/m 0,0 km/h N 14,8 C 18,8 C 0,0 km/h
06.08.2013 07:00 19,7 C 77 % 1014,6 hPa 0,0 l/m 0,0 km/h N 15,5 C 19,7 C 1,6 km/h
06.08.2013 08:00 22,3 C 80 % 1014,9 hPa 0,0 l/m 0,3 km/h N 18,7 C 22,3 C 2,8 km/h
06.08.2013 09:00 26,3 C 69 % 1014,9 hPa 0,0 l/m 0,3 km/h N 20,1 C 26,3 C 4,0 km/h
06.08.2013 10:00 29,4 C 60 % 1014,9 hPa 0,0 l/m 0,9 km/h N 20,7 C 29,4 C 4,4 km/h
06.08.2013 11:00 31,3 C 56 % 1014,7 hPa 0,0 l/m 1,0 km/h N 21,4 C 31,3 C 6,4 km/h
06.08.2013 12:00 32,8 C 52 % 1014,3 hPa 0,0 l/m 1,1 km/h N 21,4 C 32,8 C 7,2 km/h
06.08.2013 13:00 34,0 C 48 % 1013,8 hPa 0,0 l/m 1,5 km/h N 21,3 C 34,0 C 8,0 km/h
06.08.2013 14:00 34,5 C 46 % 1013,0 hPa 0,0 l/m 2,2 km/h N 21,1 C 34,5 C 8,8 km/h
06.08.2013 15:00 35,1 C 44 % 1012,2 hPa 0,0 l/m 2,1 km/h N 21,1 C 35,1 C 12,1 km/h
06.08.2013 16:00 35,4 C 39 % 1011,4 hPa 0,0 l/m 4,0 km/h N 19,0 C 35,4 C 13,7 km/h
06.08.2013 17:00 35,4 C 37 % 1011,0 hPa 0,0 l/m 6,1 km/h N 18,4 C 35,4 C 18,5 km/h
06.08.2013 18:00 35,2 C 35 % 1010,8 hPa 0,0 l/m 6,3 km/h N 17,4 C 35,2 C 21,3 km/h
06.08.2013 19:00 34,3 C 37 % 1010,3 hPa 0,0 l/m 5,7 km/h N 17,3 C 34,3 C 16,9 km/h
06.08.2013 20:00 32,0 C 43 % 1010,3 hPa 0,0 l/m 1,0 km/h N 17,6 C 32,0 C 7,7 km/h
06.08.2013 21:00 28,8 C 51 % 1010,7 hPa 0,0 l/m 0,3 km/h N 17,6 C 28,8 C 4,0 km/h
06.08.2013 22:00 27,6 C 53 % 1010,7 hPa 0,0 l/m 0,4 km/h N 17,2 C 27,6 C 4,4 km/h
06.08.2013 23:00 27,4 C 52 % 1010,1 hPa 0,0 l/m 2,7 km/h N 16,7 C 27,4 C 8,4 km/h
07.08.2013 00:00 27,3 C 52 % 1010,5 hPa 0,0 l/m 0,9 km/h N 16,5 C 27,3 C 6,0 km/h
07.08.2013 01:00 28,2 C 51 % 1012,0 hPa 0,0 l/m 5,3 km/h N 17,1 C 28,0 C 20,9 km/h
07.08.2013 02:00 25,3 C 60 % 1014,2 hPa 0,0 l/m 14,2 km/h N 16,8 C 23,8 C 36,6 km/h
07.08.2013 03:00 24,2 C 59 % 1014,3 hPa 0,0 l/m 8,6 km/h N 15,7 C 23,6 C 26,1 km/h
07.08.2013 04:00 23,2 C 61 % 1013,7 hPa 0,0 l/m 2,8 km/h N 15,1 C 23,2 C 12,1 km/h
07.08.2013 05:00 21,6 C 66 % 1013,2 hPa 0,0 l/m 0,0 km/h N 15,0 C 21,6 C 0,0 km/h
07.08.2013 06:00 20,5 C 72 % 1013,1 hPa 0,0 l/m 0,2 km/h N 15,3 C 20,5 C 4,0 km/h
07.08.2013 07:00 21,4 C 70 % 1013,4 hPa 0,0 l/m 0,1 km/h N 15,7 C 21,4 C 2,4 km/h
07.08.2013 08:00 24,5 C 62 % 1013,1 hPa 0,0 l/m 0,1 km/h N 16,6 C 24,5 C 2,0 km/h
07.08.2013 09:00 27,9 C 52 % 1012,8 hPa 0,0 l/m 1,2 km/h N 17,1 C 27,9 C 6,8 km/h
07.08.2013 10:00 29,4 C 49 % 1012,7 hPa 0,0 l/m 2,1 km/h N 17,4 C 29,4 C 11,3 km/h
07.08.2013 11:00 30,8 C 47 % 1012,3 hPa 0,0 l/m 3,6 km/h N 18,1 C 30,8 C 13,7 km/h
07.08.2013 12:00 32,5 C 45 % 1011,4 hPa 0,0 l/m 4,8 km/h N 19,0 C 32,5 C 17,3 km/h
07.08.2013 13:00 34,0 C 42 % 1010,7 hPa 0,0 l/m 6,4 km/h N 19,2 C 34,0 C 21,7 km/h
07.08.2013 14:00 35,0 C 38 % 1010,1 hPa 0,0 l/m 9,4 km/h N 18,3 C 35,0 C 25,7 km/h
07.08.2013 15:00 35,4 C 35 % 1009,6 hPa 0,0 l/m 9,7 km/h N 17,7 C 35,4 C 24,5 km/h
07.08.2013 16:00 35,2 C 35 % 1009,3 hPa 0,0 l/m 8,6 km/h N 17,4 C 35,2 C 22,1 km/h
07.08.2013 17:00 35,2 C 35 % 1009,2 hPa 0,0 l/m 7,7 km/h N 17,5 C 35,2 C 23,3 km/h
07.08.2013 18:00 35,1 C 36 % 1008,8 hPa 0,0 l/m 7,0 km/h N 17,9 C 35,1 C 18,9 km/h
07.08.2013 19:00 34,2 C 38 % 1008,7 hPa 0,0 l/m 6,1 km/h N 17,8 C 34,2 C 19,3 km/h
07.08.2013 20:00 32,6 C 42 % 1009,0 hPa 0,0 l/m 2,3 km/h N 17,9 C 32,6 C 9,7 km/h
07.08.2013 21:00 30,4 C 47 % 1009,5 hPa 0,0 l/m 1,3 km/h N 17,7 C 30,4 C 8,4 km/h
07.08.2013 22:00 28,2 C 54 % 1009,9 hPa 0,0 l/m 0,0 km/h N 18,0 C 28,2 C 0,4 km/h
07.08.2013 23:00 27,0 C 57 % 1009,9 hPa 0,0 l/m 0,3 km/h N 17,6 C 27,0 C 4,8 km/h
08.08.2013 00:00 27,0 C 57 % 1009,8 hPa 0,0 l/m 0,2 km/h N 17,8 C 27,0 C 3,2 km/h
08.08.2013 01:00 25,8 C 63 % 1009,9 hPa 0,0 l/m 0,1 km/h N 18,2 C 25,8 C 2,8 km/h
08.08.2013 02:00 24,0 C 69 % 1009,8 hPa 0,0 l/m 0,0 km/h N 17,9 C 24,0 C 0,8 km/h
08.08.2013 03:00 23,1 C 70 % 1010,0 hPa 0,0 l/m 0,2 km/h N 17,4 C 23,1 C 2,4 km/h
08.08.2013 04:00 22,0 C 74 % 1010,1 hPa 0,0 l/m 0,0 km/h N 17,1 C 22,0 C 0,8 km/h
08.08.2013 05:00 21,0 C 77 % 1010,1 hPa 0,0 l/m 0,1 km/h N 16,8 C 21,0 C 2,4 km/h
08.08.2013 06:00 20,4 C 80 % 1010,4 hPa 0,0 l/m 0,0 km/h N 16,9 C 20,4 C 1,6 km/h
08.08.2013 07:00 23,1 C 71 % 1010,6 hPa 0,0 l/m 1,4 km/h N 17,4 C 23,1 C 8,9 km/h
08.08.2013 08:00 25,4 C 62 % 1010,9 hPa 0,0 l/m 2,2 km/h N 17,6 C 25,4 C 10,1 km/h
08.08.2013 09:00 27,3 C 61 % 1011,2 hPa 0,0 l/m 0,7 km/h N 19,1 C 27,3 C 5,6 km/h
08.08.2013 10:00 31,0 C 50 % 1011,5 hPa 0,0 l/m 0,4 km/h N 19,2 C 31,0 C 5,2 km/h
08.08.2013 11:00 33,2 C 46 % 1011,4 hPa 0,0 l/m 0,7 km/h N 20,0 C 33,2 C 5,2 km/h
08.08.2013 12:00 35,2 C 41 % 1011,0 hPa 0,0 l/m 1,1 km/h N 20,0 C 35,2 C 6,8 km/h
08.08.2013 13:00 37,5 C 35 % 1010,3 hPa 0,0 l/m 3,1 km/h N 19,4 C 37,5 C 14,1 km/h
08.08.2013 14:00 38,9 C 29 % 1010,0 hPa 0,0 l/m 4,7 km/h N 17,3 C 38,9 C 17,3 km/h
08.08.2013 15:00 38,7 C 26 % 1009,7 hPa 0,0 l/m 6,2 km/h N 15,5 C 38,7 C 17,3 km/h
08.08.2013 16:00 38,5 C 26 % 1009,3 hPa 0,0 l/m 6,9 km/h N 15,6 C 38,5 C 19,3 km/h
08.08.2013 17:00 38,4 C 24 % 1009,0 hPa 0,0 l/m 8,7 km/h N 14,4 C 38,4 C 23,3 km/h
08.08.2013 18:00 37,8 C 25 % 1009,0 hPa 0,0 l/m 7,0 km/h N 14,4 C 37,8 C 20,9 km/h
08.08.2013 19:00 36,6 C 28 % 1009,1 hPa 0,0 l/m 3,1 km/h N 15,2 C 36,6 C 12,1 km/h
08.08.2013 20:00 33,7 C 36 % 1009,8 hPa 0,0 l/m 0,5 km/h N 16,5 C 33,7 C 4,0 km/h
08.08.2013 21:00 28,8 C 54 % 1010,8 hPa 0,0 l/m 2,9 km/h N 18,3 C 28,8 C 10,9 km/h
08.08.2013 22:00 26,4 C 61 % 1011,8 hPa 0,0 l/m 3,3 km/h N 18,2 C 26,4 C 14,1 km/h
08.08.2013 23:00 25,6 C 63 % 1012,3 hPa 0,0 l/m 4,9 km/h N 18,0 C 25,6 C 18,9 km/h
09.08.2013 00:00 25,4 C 65 % 1012,6 hPa 0,0 l/m 6,5 km/h N 18,3 C 25,3 C 20,9 km/h
09.08.2013 01:00 25,3 C 65 % 1012,5 hPa 0,0 l/m 5,6 km/h N 18,1 C 25,3 C 20,9 km/h
09.08.2013 02:00 24,9 C 65 % 1012,8 hPa 0,0 l/m 2,3 km/h N 17,8 C 24,9 C 14,1 km/h
09.08.2013 03:00 24,4 C 66 % 1013,1 hPa 0,0 l/m 0,9 km/h N 17,6 C 24,4 C 9,3 km/h
09.08.2013 04:00 24,3 C 67 % 1013,2 hPa 0,0 l/m 1,9 km/h N 17,8 C 24,3 C 14,1 km/h
09.08.2013 05:00 24,3 C 68 % 1013,6 hPa 0,0 l/m 4,7 km/h N 18,1 C 24,3 C 17,7 km/h
09.08.2013 06:00 24,0 C 71 % 1014,0 hPa 0,0 l/m 5,4 km/h N 18,2 C 23,9 C 17,3 km/h
09.08.2013 07:00 23,7 C 72 % 1014,4 hPa 0,0 l/m 8,9 km/h N 18,4 C 23,0 C 24,1 km/h
09.08.2013 08:00 23,7 C 73 % 1015,2 hPa 0,0 l/m 10,3 km/h N 18,5 C 22,7 C 28,2 km/h
09.08.2013 09:00 24,9 C 71 % 1015,1 hPa 0,0 l/m 8,8 km/h N 19,1 C 24,3 C 22,1 km/h
09.08.2013 10:00 25,1 C 70 % 1015,2 hPa 0,0 l/m 9,4 km/h N 19,3 C 24,4 C 23,3 km/h
09.08.2013 11:00 26,3 C 68 % 1014,7 hPa 0,0 l/m 6,3 km/h N 19,9 C 26,3 C 17,7 km/h
09.08.2013 12:00 28,0 C 64 % 1014,2 hPa 0,0 l/m 5,1 km/h N 20,6 C 28,0 C 16,9 km/h
09.08.2013 13:00 28,5 C 63 % 1013,6 hPa 0,0 l/m 7,7 km/h N 20,7 C 28,4 C 22,1 km/h
09.08.2013 14:00 28,3 C 63 % 1012,8 hPa 0,0 l/m 8,8 km/h N 20,5 C 27,9 C 22,9 km/h
09.08.2013 15:00 26,1 C 68 % 1012,9 hPa 0,0 l/m 10,7 km/h N 19,7 C 25,2 C 24,5 km/h
09.08.2013 16:00 25,1 C 71 % 1012,6 hPa 0,0 l/m 8,9 km/h N 19,6 C 24,6 C 26,9 km/h
09.08.2013 17:00 24,4 C 74 % 1013,0 hPa 0,0 l/m 12,9 km/h N 19,4 C 22,9 C 31,0 km/h
09.08.2013 18:00 23,4 C 78 % 1012,9 hPa 0,0 l/m 9,5 km/h N 19,2 C 22,5 C 23,7 km/h
09.08.2013 19:00 22,8 C 79 % 1012,5 hPa 0,3 l/m 7,5 km/h N 18,9 C 22,5 C 19,7 km/h
09.08.2013 20:00 22,6 C 78 % 1013,0 hPa 0,0 l/m 8,0 km/h N 18,6 C 22,0 C 24,5 km/h
09.08.2013 21:00 21,8 C 80 % 1013,7 hPa 0,0 l/m 4,4 km/h N 18,2 C 21,8 C 16,9 km/h
09.08.2013 22:00 20,9 C 81 % 1015,3 hPa 6,2 l/m 5,8 km/h N 17,4 C 20,7 C 17,7 km/h
09.08.2013 23:00 19,3 C 80 % 1015,9 hPa 6,0 l/m 7,2 km/h N 15,8 C 18,7 C 26,5 km/h
10.08.2013 00:00 17,9 C 82 % 1016,4 hPa 0,8 l/m 13,6 km/h N 14,8 C 15,1 C 35,0 km/h
10.08.2013 01:00 17,8 C 82 % 1015,5 hPa 0,3 l/m 13,5 km/h N 14,6 C 15,0 C 31,8 km/h
10.08.2013 02:00 18,0 C 81 % 1015,8 hPa 0,0 l/m 13,5 km/h N 14,7 C 15,3 C 36,2 km/h
10.08.2013 03:00 18,0 C 82 % 1015,7 hPa 0,3 l/m 10,2 km/h N 14,8 C 16,3 C 27,4 km/h
10.08.2013 04:00 17,8 C 82 % 1016,0 hPa 0,0 l/m 11,0 km/h N 14,7 C 15,9 C 27,0 km/h
10.08.2013 05:00 17,8 C 82 % 1016,3 hPa 0,0 l/m 11,5 km/h N 14,6 C 15,6 C 26,5 km/h
10.08.2013 06:00 17,7 C 82 % 1017,0 hPa 0,0 l/m 8,9 km/h N 14,6 C 16,6 C 23,3 km/h
10.08.2013 07:00 17,6 C 80 % 1017,5 hPa 0,0 l/m 9,5 km/h N 14,1 C 16,1 C 25,3 km/h
10.08.2013 08:00 17,8 C 74 % 1017,9 hPa 0,0 l/m 11,0 km/h N 13,1 C 15,9 C 27,4 km/h
10.08.2013 09:00 18,6 C 70 % 1018,1 hPa 0,0 l/m 10,4 km/h N 13,0 C 16,9 C 29,4 km/h
10.08.2013 10:00 19,7 C 66 % 1018,2 hPa 0,0 l/m 11,5 km/h N 13,1 C 17,8 C 30,2 km/h
10.08.2013 11:00 20,8 C 63 % 1018,3 hPa 0,0 l/m 12,5 km/h N 13,5 C 18,8 C 32,6 km/h
10.08.2013 12:00 21,7 C 59 % 1018,3 hPa 0,0 l/m 10,8 km/h N 13,4 C 20,3 C 28,6 km/h
10.08.2013 13:00 21,8 C 56 % 1018,3 hPa 0,0 l/m 11,2 km/h N 12,7 C 20,3 C 28,2 km/h
10.08.2013 14:00 22,0 C 59 % 1018,1 hPa 0,0 l/m 11,2 km/h N 13,7 C 20,6 C 28,2 km/h
10.08.2013 15:00 22,4 C 59 % 1017,5 hPa 0,0 l/m 12,1 km/h N 13,9 C 20,8 C 29,0 km/h
10.08.2013 16:00 22,8 C 58 % 1016,8 hPa 0,0 l/m 9,4 km/h N 14,0 C 21,9 C 25,0 km/h
10.08.2013 17:00 23,2 C 57 % 1016,5 hPa 0,0 l/m 8,8 km/h N 14,2 C 22,5 C 24,1 km/h
10.08.2013 18:00 23,3 C 56 % 1016,0 hPa 0,0 l/m 6,9 km/h N 14,0 C 23,2 C 19,7 km/h
10.08.2013 19:00 23,0 C 58 % 1016,1 hPa 0,0 l/m 5,1 km/h N 14,1 C 23,0 C 17,3 km/h
10.08.2013 20:00 21,8 C 60 % 1016,5 hPa 0,0 l/m 3,5 km/h N 13,7 C 21,8 C 13,3 km/h
10.08.2013 21:00 20,6 C 65 % 1016,9 hPa 0,0 l/m 1,5 km/h N 13,8 C 20,6 C 7,6 km/h
10.08.2013 22:00 19,9 C 69 % 1017,3 hPa 0,0 l/m 0,7 km/h N 14,0 C 19,9 C 5,2 km/h
10.08.2013 23:00 19,1 C 70 % 1017,3 hPa 0,0 l/m 1,7 km/h N 13,4 C 19,1 C 6,8 km/h
11.08.2013 00:00 18,3 C 72 % 1017,7 hPa 0,0 l/m 0,4 km/h N 13,1 C 18,3 C 5,2 km/h
11.08.2013 01:00 16,7 C 76 % 1017,6 hPa 0,0 l/m 0,0 km/h N 12,4 C 16,7 C 0,0 km/h
11.08.2013 02:00 15,6 C 80 % 1017,2 hPa 0,0 l/m 0,0 km/h N 12,0 C 15,6 C 0,4 km/h
11.08.2013 03:00 14,7 C 82 % 1016,9 hPa 0,0 l/m 0,0 km/h N 11,6 C 14,7 C 0,0 km/h
11.08.2013 04:00 14,8 C 82 % 1016,4 hPa 0,0 l/m 0,0 km/h N 11,8 C 14,8 C 2,4 km/h
11.08.2013 05:00 14,8 C 82 % 1016,5 hPa 0,0 l/m 0,0 km/h N 11,8 C 14,8 C 0,0 km/h
11.08.2013 06:00 14,3 C 82 % 1016,7 hPa 0,0 l/m 0,0 km/h N 11,3 C 14,3 C 0,0 km/h
11.08.2013 07:00 15,9 C 82 % 1016,8 hPa 0,0 l/m 0,3 km/h N 12,7 C 15,9 C 4,0 km/h
11.08.2013 08:00 20,8 C 65 % 1016,7 hPa 0,0 l/m 4,0 km/h N 13,9 C 20,8 C 15,3 km/h
11.08.2013 09:00 22,9 C 57 % 1016,6 hPa 0,0 l/m 6,0 km/h N 13,8 C 22,9 C 17,3 km/h
11.08.2013 10:00 23,8 C 56 % 1016,7 hPa 0,0 l/m 7,5 km/h N 14,4 C 23,5 C 20,1 km/h
11.08.2013 11:00 25,0 C 53 % 1016,6 hPa 0,0 l/m 6,5 km/h N 14,5 C 24,9 C 20,5 km/h
11.08.2013 12:00 25,7 C 52 % 1016,4 hPa 0,0 l/m 6,8 km/h N 15,2 C 25,6 C 19,3 km/h
11.08.2013 13:00 25,8 C 51 % 1016,0 hPa 0,0 l/m 7,8 km/h N 14,9 C 25,6 C 24,5 km/h
11.08.2013 14:00 26,3 C 48 % 1015,6 hPa 0,0 l/m 7,6 km/h N 14,2 C 26,0 C 22,9 km/h
11.08.2013 15:00 26,4 C 45 % 1015,2 hPa 0,0 l/m 8,6 km/h N 13,6 C 26,0 C 24,5 km/h
11.08.2013 16:00 26,5 C 45 % 1014,9 hPa 0,0 l/m 9,2 km/h N 13,6 C 25,9 C 24,1 km/h
11.08.2013 17:00 26,2 C 46 % 1014,7 hPa 0,0 l/m 9,9 km/h N 13,6 C 25,5 C 27,4 km/h
11.08.2013 18:00 25,9 C 46 % 1014,5 hPa 0,0 l/m 8,8 km/h N 13,2 C 25,4 C 24,9 km/h
11.08.2013 19:00 25,3 C 47 % 1014,6 hPa 0,0 l/m 4,3 km/h N 13,1 C 25,2 C 16,5 km/h
11.08.2013 20:00 23,6 C 52 % 1015,0 hPa 0,0 l/m 2,9 km/h N 13,0 C 23,6 C 10,1 km/h
11.08.2013 21:00 22,5 C 54 % 1015,5 hPa 0,0 l/m 2,0 km/h N 12,6 C 22,5 C 11,7 km/h
11.08.2013 22:00 22,3 C 53 % 1015,9 hPa 0,0 l/m 1,1 km/h N 12,3 C 22,3 C 7,7 km/h
11.08.2013 23:00 21,1 C 58 % 1016,3 hPa 0,0 l/m 0,2 km/h N 12,3 C 21,1 C 3,6 km/h
Min-Datum _ 11.08.13 08.08.13 07.08.13 - 05.08.13 - 11.08.13 11.08.13 05.08.13
_ Min-Zeit 06:30 17:15 19:00 - 00:00 - 06:15 06:30 00:30
Minimum _ 14,2 C 24 % 1008,6 hPa - 0,0 km/h - 11,3 C 14,2 C 0,0 km/h
Max-Datum _ 08.08.13 11.08.13 05.08.13 09.08.13 10.08.13 - 06.08.13 08.08.13 10.08.13
_ Max-Zeit 15:00 04:15 00:00 22:30 02:15 - 15:15 14:45 02:15
Maximum _ 39,2 C 83 % 1020,4 hPa 6,2 l/m 16,9 km/h
N
- 21,8 C 39,1 C 45,1 km/h
N
Durchschnitt _ 25,3 C 61 % 1014,2 hPa #18,5 l/m 4,1 km/h N 16,5 C 25,0 C 13,2 km/h